Partoun, Utah
Current Conditions -  °F | °C
As of 12:15 AM on Sunday 26 Oct 2014 (Local Time) from KENV Reporting Station
Scattered Clouds Scattered Clouds  
Wind Chill: 63°   Ceiling: Unl
Heat Index: 63°   Visibility: 10mi
Dew Point: 28°   Wind: 15mph
Humidity: 27%   Direction: 270°W
Pressure: 29.93"   Gusts: NA
Location:  40.2503°N, 113.457°W
Report Text: KENV 260615Z AUTO 27013KT 10SM SCT110 17/M02 A2993 RMK AO1
Loading
Personal Weather Stations






























Interactive Weather Map
Tropical Storm Tracking
New forecast layout! Learn more

10-Day Weather Forecast

Advertisements
Track Severe Weather on mobile